createdAt,value
2018-09-22T00:01:34.708Z,60.08
2018-09-22T00:04:04.036Z,59.76
2018-09-22T00:06:33.275Z,60.35
2018-09-22T00:09:02.511Z,59.86
2018-09-22T00:11:31.722Z,59.98
2018-09-22T00:14:01.031Z,60.90
2018-09-22T00:16:29.886Z,60.91
2018-09-22T00:18:59.147Z,60.84
2018-09-22T00:21:28.403Z,60.58
2018-09-22T00:23:57.851Z,60.44
2018-09-22T00:26:27.042Z,60.69
2018-09-22T00:28:56.157Z,60.34
2018-09-22T00:31:25.063Z,61.05
2018-09-22T00:33:54.006Z,60.61
2018-09-22T00:36:23.318Z,60.50
2018-09-22T00:38:52.575Z,61.20
2018-09-22T00:41:21.920Z,60.83
2018-09-22T00:43:51.211Z,60.99
2018-09-22T00:46:20.596Z,60.83
2018-09-22T00:48:49.727Z,60.53
2018-09-22T00:51:19.127Z,60.66
2018-09-22T00:53:48.373Z,61.30
2018-09-22T00:56:17.535Z,60.31
2018-09-22T00:58:46.701Z,60.08
2018-09-22T01:01:16.017Z,61.25
2018-09-22T01:03:45.360Z,60.63
2018-09-22T01:06:14.717Z,60.69
2018-09-22T01:08:43.960Z,60.63
2018-09-22T01:11:13.307Z,60.72
2018-09-22T01:13:42.520Z,60.90
2018-09-22T01:16:11.928Z,62.27
2018-09-22T01:18:41.042Z,62.43
2018-09-22T01:21:10.024Z,62.26
2018-09-22T01:23:39.394Z,61.38
2018-09-22T01:26:08.633Z,62.02
2018-09-22T01:28:37.668Z,61.55
2018-09-22T01:31:06.957Z,61.89
2018-09-22T01:33:36.293Z,62.16
2018-09-22T01:36:05.690Z,61.71
2018-09-22T01:38:34.935Z,62.45
2018-09-22T01:41:04.296Z,62.02
2018-09-22T01:43:33.533Z,62.14
2018-09-22T01:46:02.731Z,61.99
2018-09-22T01:48:32.039Z,61.97
2018-09-22T01:51:01.256Z,61.59
2018-09-22T01:53:30.536Z,62.01
2018-09-22T01:55:59.867Z,62.46
2018-09-22T01:58:29.228Z,61.95
2018-09-22T02:00:58.541Z,62.33
2018-09-22T02:03:27.471Z,61.85
2018-09-22T02:05:56.719Z,62.00
2018-09-22T02:08:25.967Z,62.65
2018-09-22T02:10:55.311Z,62.35
2018-09-22T02:13:24.546Z,62.52
2018-09-22T02:15:54.065Z,63.27
2018-09-22T02:18:23.057Z,63.19
2018-09-22T02:20:52.459Z,63.95
2018-09-22T02:23:21.876Z,64.05
2018-09-22T02:25:51.269Z,64.38
2018-09-22T02:28:20.773Z,64.22
2018-09-22T02:30:50.087Z,64.24
2018-09-22T02:33:19.523Z,64.18
2018-09-22T02:35:48.815Z,64.19
2018-09-22T02:38:18.120Z,64.25
2018-09-22T02:40:47.434Z,63.46
2018-09-22T02:43:16.730Z,63.89
2018-09-22T02:45:45.923Z,63.18
2018-09-22T02:48:14.991Z,63.47
2018-09-22T02:50:44.221Z,64.24
2018-09-22T02:53:13.443Z,64.11
2018-09-22T02:55:42.652Z,63.18
2018-09-22T02:58:12.158Z,62.75
2018-09-22T03:00:41.582Z,62.89
2018-09-22T03:03:10.509Z,63.51
2018-09-22T03:05:39.754Z,63.65
2018-09-22T03:08:09.177Z,63.74
2018-09-22T03:10:38.343Z,63.72
2018-09-22T03:13:07.689Z,63.99
2018-09-22T03:15:36.817Z,62.76
2018-09-22T03:18:06.236Z,62.90
2018-09-22T03:20:35.511Z,63.06
2018-09-22T03:23:04.799Z,62.97
2018-09-22T03:25:33.844Z,64.21
2018-09-22T03:28:03.188Z,63.79
2018-09-22T03:30:32.395Z,62.89
2018-09-22T03:33:01.321Z,63.03
2018-09-22T03:35:30.620Z,63.93
2018-09-22T03:37:59.792Z,63.67
2018-09-22T03:40:29.109Z,64.19
2018-09-22T03:42:58.152Z,64.30
2018-09-22T03:45:27.352Z,63.97
2018-09-22T03:47:56.516Z,64.25
2018-09-22T03:50:25.735Z,64.24
2018-09-22T03:52:54.936Z,64.14
2018-09-22T03:55:24.295Z,64.33
2018-09-22T03:57:53.643Z,64.82
2018-09-22T04:00:23.099Z,64.42
2018-09-22T04:02:52.295Z,64.86
2018-09-22T04:05:21.595Z,65.40
2018-09-22T04:07:50.960Z,65.53
2018-09-22T04:10:20.090Z,64.23
2018-09-22T04:12:49.329Z,65.06
2018-09-22T04:15:18.591Z,64.83
2018-09-22T04:17:47.524Z,64.60
2018-09-22T04:20:16.671Z,64.26
2018-09-22T04:22:45.852Z,64.23
2018-09-22T04:25:15.168Z,64.15
2018-09-22T04:27:44.616Z,64.39
2018-09-22T04:30:13.675Z,63.98
2018-09-22T04:32:42.900Z,63.93
2018-09-22T04:35:11.991Z,63.48
2018-09-22T04:37:40.869Z,63.80
2018-09-22T04:40:10.284Z,63.55
2018-09-22T04:42:39.497Z,63.35
2018-09-22T04:45:08.942Z,63.56
2018-09-22T04:47:38.143Z,63.34
2018-09-22T04:50:07.662Z,62.26
2018-09-22T04:52:36.991Z,63.24
2018-09-22T04:55:06.081Z,62.21
2018-09-22T04:57:35.135Z,60.89
2018-09-22T05:00:04.475Z,61.52
2018-09-22T05:02:33.674Z,62.05
2018-09-22T05:05:02.971Z,61.18
2018-09-22T05:07:32.396Z,60.88
2018-09-22T05:10:01.749Z,60.31
2018-09-22T05:12:31.209Z,60.03
2018-09-22T05:15:00.587Z,59.31
2018-09-22T05:17:29.941Z,59.28
2018-09-22T05:19:59.316Z,58.53
2018-09-22T05:22:28.668Z,58.96
2018-09-22T05:24:58.009Z,58.75
2018-09-22T05:27:27.471Z,58.28
2018-09-22T05:29:56.571Z,58.00
2018-09-22T05:32:26.075Z,58.23
2018-09-22T05:34:55.285Z,58.26
2018-09-22T05:37:24.413Z,58.87
2018-09-22T05:39:53.820Z,59.04
2018-09-22T05:42:22.996Z,58.11
2018-09-22T05:44:52.330Z,57.68
2018-09-22T05:47:21.698Z,56.66
2018-09-22T05:49:50.949Z,57.08
2018-09-22T05:52:20.217Z,56.25
2018-09-22T05:54:49.502Z,56.58
2018-09-22T05:57:19.007Z,57.29
2018-09-22T05:59:48.456Z,57.63
2018-09-22T06:02:17.554Z,57.75
2018-09-22T06:04:46.651Z,57.65
2018-09-22T06:07:16.744Z,57.57
2018-09-22T06:09:46.230Z,56.81
2018-09-22T06:12:16.108Z,57.28
2018-09-22T06:14:45.628Z,56.91
2018-09-22T06:17:15.168Z,55.20
2018-09-22T06:19:44.244Z,56.08
2018-09-22T06:22:13.452Z,57.25
2018-09-22T06:24:42.808Z,56.46
2018-09-22T06:27:12.191Z,54.41
2018-09-22T06:29:41.186Z,54.95
2018-09-22T06:32:10.527Z,55.11
2018-09-22T06:34:39.763Z,55.68
2018-09-22T06:37:08.969Z,56.43
2018-09-22T06:39:38.087Z,56.28
2018-09-22T06:42:07.323Z,56.45
2018-09-22T06:44:36.197Z,56.58
2018-09-22T06:47:05.214Z,56.76
2018-09-22T06:49:34.423Z,56.49
2018-09-22T06:52:03.845Z,56.30
2018-09-22T06:54:33.009Z,56.45
2018-09-22T06:57:02.010Z,56.08
2018-09-22T06:59:31.360Z,55.96
2018-09-22T07:02:00.631Z,55.28
2018-09-22T07:04:29.835Z,54.35
2018-09-22T07:06:59.087Z,53.90
2018-09-22T07:09:28.423Z,53.99
2018-09-22T07:11:57.833Z,53.93
2018-09-22T07:14:27.088Z,53.65
2018-09-22T07:16:56.447Z,51.70
2018-09-22T07:19:25.500Z,51.75
2018-09-22T07:21:59.863Z,51.61
2018-09-22T07:24:29.007Z,49.85
2018-09-22T07:26:58.199Z,50.35
2018-09-22T07:29:27.488Z,49.91
2018-09-22T07:31:56.743Z,48.48
2018-09-22T07:34:25.820Z,48.07
2018-09-22T07:36:54.844Z,47.13
2018-09-22T07:39:24.185Z,45.09
2018-09-22T07:41:53.232Z,44.52
2018-09-22T07:44:22.116Z,42.14
2018-09-22T07:46:51.213Z,41.04
2018-09-22T07:49:20.511Z,37.92
2018-09-22T07:51:49.430Z,39.23
2018-09-22T07:54:18.567Z,38.28
2018-09-22T07:56:47.956Z,37.45
2018-09-22T07:59:16.987Z,37.05
2018-09-22T08:01:47.163Z,38.20
2018-09-22T08:04:16.404Z,36.83
2018-09-22T08:06:45.355Z,36.82
2018-09-22T08:09:14.507Z,38.01
2018-09-22T08:11:43.775Z,36.69
2018-09-22T08:14:12.717Z,36.14
2018-09-22T08:16:41.649Z,37.15
2018-09-22T08:19:11.024Z,37.48
2018-09-22T08:21:40.227Z,38.49
2018-09-22T08:24:09.474Z,38.63
2018-09-22T08:26:38.825Z,38.80
2018-09-22T08:29:08.205Z,38.39
2018-09-22T08:31:37.978Z,37.36
2018-09-22T08:34:07.484Z,37.99
2018-09-22T08:36:37.013Z,38.63
2018-09-22T08:39:08.747Z,38.18
2018-09-22T08:41:38.157Z,37.04
2018-09-22T08:44:07.540Z,38.33
2018-09-22T08:46:36.954Z,37.81
2018-09-22T08:49:06.410Z,37.86
2018-09-22T08:51:35.822Z,36.62
2018-09-22T08:54:05.104Z,37.49
2018-09-22T08:56:34.534Z,37.54
2018-09-22T08:59:03.704Z,37.57
2018-09-22T09:01:32.861Z,38.65
2018-09-22T09:04:02.087Z,38.04
2018-09-22T09:06:31.590Z,36.79
2018-09-22T09:09:00.888Z,36.71
2018-09-22T09:11:30.172Z,37.32
2018-09-22T09:13:59.506Z,36.43
2018-09-22T09:16:29.009Z,38.38
2018-09-22T09:18:58.455Z,37.29
2018-09-22T09:21:27.707Z,36.20
2018-09-22T09:23:56.783Z,37.12
2018-09-22T09:26:26.016Z,36.28
2018-09-22T09:28:55.350Z,36.24
2018-09-22T09:31:24.688Z,34.21
2018-09-22T09:33:53.939Z,35.55
2018-09-22T09:36:23.283Z,34.86
2018-09-22T09:38:57.915Z,36.16
2018-09-22T09:41:27.592Z,34.06
2018-09-22T09:43:56.723Z,33.90
2018-09-22T09:46:26.328Z,34.73
2018-09-22T09:48:55.196Z,34.79
2018-09-22T09:51:24.121Z,33.63
2018-09-22T09:53:53.250Z,32.57
2018-09-22T09:56:22.547Z,31.61
2018-09-22T09:58:51.854Z,31.47
2018-09-22T10:01:21.191Z,30.20
2018-09-22T10:03:50.139Z,29.75
2018-09-22T10:06:19.488Z,28.16
2018-09-22T10:08:48.894Z,26.77
2018-09-22T10:11:18.112Z,25.98
2018-09-22T10:13:47.228Z,24.10
2018-09-22T10:16:16.198Z,23.02
2018-09-22T10:18:45.458Z,21.58
2018-09-22T10:21:14.873Z,21.09
2018-09-22T10:23:44.233Z,19.12
2018-09-22T10:26:13.433Z,17.30
2018-09-22T10:28:42.729Z,15.97
2018-09-22T10:31:11.726Z,15.52
2018-09-22T10:33:41.155Z,14.99
2018-09-22T10:36:10.308Z,13.21
2018-09-22T10:38:39.651Z,12.56
2018-09-22T10:41:08.853Z,12.39
2018-09-22T10:43:38.151Z,12.02
2018-09-22T10:46:07.611Z,11.55
2018-09-22T10:48:36.591Z,11.65
2018-09-22T10:51:05.798Z,10.51
2018-09-22T10:53:35.054Z,10.51
2018-09-22T10:56:04.498Z,9.96
2018-09-22T10:58:33.848Z,9.49
2018-09-22T11:01:03.188Z,10.13
2018-09-22T11:03:32.261Z,9.54
2018-09-22T11:06:01.347Z,9.40
2018-09-22T11:08:30.695Z,9.97
2018-09-22T11:10:59.619Z,9.84
2018-09-22T11:13:28.916Z,10.01
2018-09-22T11:15:57.876Z,9.94
2018-09-22T11:18:27.167Z,9.41
2018-09-22T11:20:56.403Z,9.61
2018-09-22T11:23:25.406Z,8.62
2018-09-22T11:25:54.459Z,9.31
2018-09-22T11:28:23.438Z,8.63
2018-09-22T11:30:52.751Z,8.79
2018-09-22T11:33:22.091Z,8.80
2018-09-22T11:35:51.253Z,9.36
2018-09-22T11:38:20.248Z,8.52
2018-09-22T11:40:49.677Z,9.35
2018-09-22T11:43:18.693Z,8.83
2018-09-22T11:45:47.609Z,8.65
2018-09-22T11:48:16.964Z,8.12
2018-09-22T11:50:46.188Z,8.20
2018-09-22T11:53:15.144Z,7.88
2018-09-22T11:55:44.413Z,7.88
2018-09-22T11:58:13.966Z,7.98
2018-09-22T12:00:43.156Z,7.31
2018-09-22T12:03:12.308Z,8.54
2018-09-22T12:05:41.493Z,7.05
2018-09-22T12:08:10.819Z,8.74
2018-09-22T12:10:40.105Z,9.08
2018-09-22T12:13:09.432Z,9.66
2018-09-22T12:15:38.734Z,8.59
2018-09-22T12:18:07.815Z,8.47
2018-09-22T12:20:37.038Z,10.60
2018-09-22T12:23:06.346Z,11.76
2018-09-22T12:25:35.679Z,11.26
2018-09-22T12:28:04.884Z,11.10
2018-09-22T12:30:34.089Z,10.88
2018-09-22T12:33:03.204Z,10.05
2018-09-22T12:35:32.242Z,10.06
2018-09-22T12:38:01.855Z,9.71
2018-09-22T12:40:31.092Z,9.80
2018-09-22T12:43:00.403Z,9.67
2018-09-22T12:45:29.814Z,9.13
2018-09-22T12:47:59.207Z,9.42
2018-09-22T12:50:28.471Z,8.93
2018-09-22T12:52:58.442Z,9.18
2018-09-22T12:55:27.699Z,9.53
2018-09-22T12:57:56.863Z,9.25
2018-09-22T13:00:25.784Z,10.33
2018-09-22T13:02:55.187Z,10.42
2018-09-22T13:05:24.280Z,10.05
2018-09-22T13:07:53.331Z,10.08
2018-09-22T13:10:22.655Z,10.13
2018-09-22T13:12:51.623Z,9.20
2018-09-22T13:15:21.088Z,9.54
2018-09-22T13:17:50.060Z,9.17
2018-09-22T13:20:19.431Z,10.24
2018-09-22T13:22:48.739Z,10.63
2018-09-22T13:25:18.053Z,11.70
2018-09-22T13:27:47.340Z,12.77
2018-09-22T13:30:16.383Z,14.30
2018-09-22T13:32:45.743Z,14.63
2018-09-22T13:35:14.880Z,15.23
2018-09-22T13:37:44.088Z,15.84
2018-09-22T13:40:13.229Z,18.06
2018-09-22T13:42:42.608Z,16.88
2018-09-22T13:45:11.761Z,16.30
2018-09-22T13:47:40.950Z,16.87
2018-09-22T13:50:10.203Z,18.62
2018-09-22T13:52:39.551Z,19.07
2018-09-22T13:55:08.973Z,19.16
2018-09-22T13:57:38.073Z,18.56
2018-09-22T14:00:07.262Z,19.35
2018-09-22T14:02:36.456Z,19.54
2018-09-22T14:05:06.141Z,20.30
2018-09-22T14:07:35.513Z,20.68
2018-09-22T14:10:05.183Z,19.78
2018-09-22T14:12:34.155Z,19.11
2018-09-22T14:15:03.464Z,19.81
2018-09-22T14:17:32.726Z,20.79
2018-09-22T14:20:01.861Z,21.56
2018-09-22T14:22:31.247Z,20.79
2018-09-22T14:25:00.444Z,21.97
2018-09-22T14:27:30.495Z,22.13
2018-09-22T14:29:59.973Z,23.47
2018-09-22T14:32:29.038Z,23.62
2018-09-22T14:34:58.279Z,23.98
2018-09-22T14:37:27.512Z,24.48
2018-09-22T14:39:56.763Z,25.12
2018-09-22T14:42:26.215Z,24.77
2018-09-22T14:44:55.679Z,22.79
2018-09-22T14:47:25.012Z,22.93
2018-09-22T14:49:54.664Z,23.95
2018-09-22T14:52:23.631Z,23.05
2018-09-22T14:54:52.896Z,24.91
2018-09-22T14:57:22.115Z,25.24
2018-09-22T14:59:51.373Z,25.41
2018-09-22T15:02:20.587Z,25.46
2018-09-22T15:04:49.857Z,26.23
2018-09-22T15:07:19.247Z,26.03
2018-09-22T15:09:48.675Z,25.63
2018-09-22T15:12:17.702Z,26.04
2018-09-22T15:14:46.981Z,27.59
2018-09-22T15:17:16.356Z,26.89
2018-09-22T15:19:45.491Z,27.88
2018-09-22T15:22:14.678Z,27.56
2018-09-22T15:24:43.883Z,29.03
2018-09-22T15:27:12.830Z,29.37
2018-09-22T15:29:41.900Z,29.36
2018-09-22T15:32:11.321Z,29.68
2018-09-22T15:34:40.826Z,29.90
2018-09-22T15:37:10.204Z,30.17
2018-09-22T15:39:39.366Z,31.32
2018-09-22T15:42:08.723Z,31.18
2018-09-22T15:44:37.920Z,30.73
2018-09-22T15:47:07.423Z,30.25
2018-09-22T15:49:36.364Z,31.04
2018-09-22T15:52:05.775Z,31.84
2018-09-22T15:54:35.115Z,32.00
2018-09-22T15:57:04.355Z,31.84
2018-09-22T15:59:33.708Z,32.18
2018-09-22T16:02:03.053Z,32.64
2018-09-22T16:04:32.522Z,33.00
2018-09-22T16:07:01.788Z,33.03
2018-09-22T16:09:30.799Z,33.16
2018-09-22T16:12:00.163Z,34.40
2018-09-22T16:14:29.316Z,35.00
2018-09-22T16:16:58.576Z,34.59
2018-09-22T16:19:27.823Z,35.38
2018-09-22T16:21:57.052Z,34.77
2018-09-22T16:24:26.208Z,34.11
2018-09-22T16:26:55.275Z,33.46
2018-09-22T16:29:24.497Z,32.75
2018-09-22T16:31:53.789Z,33.40
2018-09-22T16:34:23.351Z,33.20
2018-09-22T16:36:52.678Z,32.95
2018-09-22T16:39:21.943Z,32.82
2018-09-22T16:41:51.212Z,32.78
2018-09-22T16:44:20.535Z,32.54
2018-09-22T16:46:49.691Z,33.48
2018-09-22T16:49:18.697Z,33.06
2018-09-22T16:51:47.876Z,32.79
2018-09-22T16:54:17.229Z,31.60
2018-09-22T16:56:46.229Z,32.12
2018-09-22T16:59:15.313Z,33.25
2018-09-22T17:01:44.612Z,33.24
2018-09-22T17:04:13.840Z,32.95
2018-09-22T17:06:43.055Z,32.66
2018-09-22T17:09:12.235Z,33.08
2018-09-22T17:11:41.504Z,33.42
2018-09-22T17:14:10.787Z,33.57
2018-09-22T17:16:40.389Z,33.15
2018-09-22T17:19:09.378Z,33.37
2018-09-22T17:21:38.540Z,33.49
2018-09-22T17:24:07.617Z,33.22
2018-09-22T17:26:36.831Z,33.74
2018-09-22T17:29:05.853Z,34.03
2018-09-22T17:31:34.871Z,35.42
2018-09-22T17:34:03.906Z,35.59
2018-09-22T17:36:33.263Z,34.33
2018-09-22T17:39:02.663Z,35.33
2018-09-22T17:41:31.602Z,34.88
2018-09-22T17:44:00.891Z,34.90
2018-09-22T17:46:30.195Z,34.55
2018-09-22T17:48:59.315Z,35.84
2018-09-22T17:51:28.520Z,35.16
2018-09-22T17:53:57.908Z,36.14
2018-09-22T17:56:27.089Z,35.75
2018-09-22T17:58:56.196Z,34.20
2018-09-22T18:01:25.590Z,35.46
2018-09-22T18:03:54.989Z,35.34
2018-09-22T18:06:24.453Z,36.43
2018-09-22T18:08:53.734Z,36.52
2018-09-22T18:11:22.930Z,36.78
2018-09-22T18:13:52.336Z,37.24
2018-09-22T18:16:21.280Z,36.62
2018-09-22T18:18:50.395Z,37.17
2018-09-22T18:21:19.723Z,37.73
2018-09-22T18:23:49.011Z,35.04
2018-09-22T18:26:18.220Z,35.55
2018-09-22T18:28:47.448Z,36.57
2018-09-22T18:31:16.871Z,36.92
2018-09-22T18:33:46.234Z,36.89
2018-09-22T18:36:15.385Z,35.19
2018-09-22T18:38:44.346Z,36.05
2018-09-22T18:41:13.705Z,36.36
2018-09-22T18:43:45.946Z,36.69
2018-09-22T18:46:15.584Z,36.25
2018-09-22T18:48:45.045Z,36.58
2018-09-22T18:51:14.383Z,36.65
2018-09-22T18:53:43.579Z,36.12
2018-09-22T18:56:12.752Z,35.84
2018-09-22T18:58:42.220Z,36.49
2018-09-22T19:01:11.143Z,35.66
2018-09-22T19:03:40.227Z,36.64
2018-09-22T19:06:09.503Z,36.56
2018-09-22T19:08:38.607Z,36.11
2018-09-22T19:11:07.864Z,36.24
2018-09-22T19:13:46.765Z,36.52
2018-09-22T19:16:20.500Z,36.37
2018-09-22T19:18:55.880Z,36.66
2018-09-22T19:21:31.934Z,35.91
2018-09-22T19:24:04.585Z,36.80
2018-09-22T19:26:39.068Z,35.32
2018-09-22T19:30:11.509Z,33.40
2018-09-22T19:32:45.797Z,33.44
2018-09-22T19:35:32.734Z,34.09
2018-09-22T19:38:10.434Z,34.97
2018-09-22T19:40:43.208Z,35.42
2018-09-22T19:43:17.415Z,34.56
2018-09-22T19:45:48.487Z,35.89
2018-09-22T19:48:22.699Z,36.03
2018-09-22T19:51:01.607Z,35.79
2018-09-22T19:53:31.064Z,37.36
2018-09-22T19:56:00.256Z,37.01
2018-09-22T19:58:29.710Z,37.46
2018-09-22T20:00:58.635Z,36.45
2018-09-22T20:03:27.988Z,37.58
2018-09-22T20:05:57.243Z,37.49
2018-09-22T20:08:26.215Z,37.58
2018-09-22T20:10:55.532Z,38.06
2018-09-22T20:13:25.055Z,38.29
2018-09-22T20:15:54.238Z,38.03
2018-09-22T20:18:23.541Z,39.97
2018-09-22T20:20:52.710Z,39.92
2018-09-22T20:23:21.918Z,40.48
2018-09-22T20:25:51.099Z,39.44
2018-09-22T20:28:20.072Z,40.01
2018-09-22T20:30:49.300Z,39.49
2018-09-22T20:33:18.751Z,40.43
2018-09-22T20:35:47.965Z,41.67
2018-09-22T20:38:17.165Z,40.87
2018-09-22T20:40:46.092Z,40.70
2018-09-22T20:43:15.444Z,40.07
2018-09-22T20:45:44.893Z,40.16
2018-09-22T20:48:14.154Z,40.12
2018-09-22T20:50:43.513Z,40.40
2018-09-22T20:53:12.814Z,40.32
2018-09-22T20:55:41.803Z,41.02
2018-09-22T20:58:10.983Z,41.55
2018-09-22T21:00:39.855Z,41.46
2018-09-22T21:03:08.767Z,41.28
2018-09-22T21:05:37.976Z,41.87
2018-09-22T21:08:07.628Z,42.02
2018-09-22T21:10:37.024Z,41.27
2018-09-22T21:13:06.016Z,42.34
2018-09-22T21:15:35.159Z,42.65
2018-09-22T21:18:04.280Z,42.02
2018-09-22T21:20:33.556Z,42.88
2018-09-22T21:23:02.619Z,42.61
2018-09-22T21:25:31.862Z,42.00
2018-09-22T21:28:00.900Z,42.78
2018-09-22T21:30:30.252Z,43.54
2018-09-22T21:32:59.449Z,43.16
2018-09-22T21:35:28.637Z,42.68
2018-09-22T21:37:57.827Z,43.03
2018-09-22T21:40:26.894Z,42.90
2018-09-22T21:42:56.124Z,42.45
2018-09-22T21:45:25.217Z,42.94
2018-09-22T21:47:54.551Z,43.02
2018-09-22T21:50:23.667Z,42.32
2018-09-22T21:52:52.747Z,43.06
2018-09-22T21:55:21.606Z,41.90
2018-09-22T21:57:50.667Z,41.51
2018-09-22T22:00:19.999Z,40.61
2018-09-22T22:02:49.335Z,40.55
2018-09-22T22:05:18.687Z,40.24
2018-09-22T22:07:48.034Z,40.02
2018-09-22T22:10:17.149Z,40.92
2018-09-22T22:12:46.439Z,40.33
2018-09-22T22:15:15.888Z,40.92
2018-09-22T22:17:45.147Z,38.82
2018-09-22T22:20:14.560Z,40.20
2018-09-22T22:22:43.911Z,39.30
2018-09-22T22:25:13.289Z,39.12
2018-09-22T22:27:42.751Z,40.00
2018-09-22T22:30:12.260Z,39.57
2018-09-22T22:32:41.760Z,40.16
2018-09-22T22:35:11.201Z,40.36
2018-09-22T22:37:40.292Z,40.53
2018-09-22T22:40:09.459Z,41.25
2018-09-22T22:42:38.623Z,39.97
2018-09-22T22:45:07.839Z,41.26
2018-09-22T22:47:39.157Z,41.80
2018-09-22T22:50:08.203Z,42.49
2018-09-22T22:55:11.231Z,43.43
2018-09-22T22:57:40.563Z,42.84
2018-09-22T23:00:09.772Z,42.89
2018-09-22T23:02:38.800Z,43.48
2018-09-22T23:05:08.052Z,44.17
2018-09-22T23:07:37.217Z,44.46
2018-09-22T23:10:06.466Z,43.75
2018-09-22T23:12:35.459Z,44.43
2018-09-22T23:15:04.716Z,43.81
2018-09-22T23:17:33.829Z,44.12
2018-09-22T23:20:03.250Z,43.53
2018-09-22T23:22:32.490Z,44.44
2018-09-22T23:25:01.931Z,45.20
2018-09-22T23:27:31.040Z,45.03
2018-09-22T23:30:00.427Z,45.12
2018-09-22T23:32:29.584Z,44.84
2018-09-22T23:34:58.631Z,45.52
2018-09-22T23:37:27.936Z,46.25
2018-09-22T23:39:57.317Z,45.68
2018-09-22T23:42:26.689Z,46.25
2018-09-22T23:44:56.030Z,46.56
2018-09-22T23:47:25.428Z,46.64
2018-09-22T23:49:54.579Z,45.65
2018-09-22T23:52:23.820Z,46.04
2018-09-22T23:54:53.023Z,46.26
2018-09-22T23:57:22.308Z,46.88
2018-09-22T23:59:51.170Z,46.44
